createdAt,value
2022-12-20T04:53:56.217Z,100688.00
2022-12-20T04:56:28.395Z,100692.00
2022-12-20T04:58:56.836Z,100683.00
2022-12-20T05:01:23.783Z,100678.00
2022-12-20T05:03:50.957Z,100692.00
2022-12-20T05:06:17.931Z,100689.00
2022-12-20T05:08:44.752Z,100681.00
2022-12-20T05:11:11.870Z,100676.00
2022-12-20T05:13:39.050Z,100670.00
2022-12-20T05:16:22.149Z,100667.00
2022-12-20T05:19:03.606Z,100671.00
2022-12-20T05:21:49.619Z,100675.00
2022-12-20T05:24:34.993Z,100667.00
2022-12-20T05:27:01.806Z,100677.00
2022-12-20T05:29:43.136Z,100665.00
2022-12-20T05:32:10.605Z,100669.00
2022-12-20T05:34:37.365Z,100661.00
2022-12-20T05:37:04.163Z,100661.00
2022-12-20T05:39:31.044Z,100655.00
2022-12-20T05:41:57.782Z,100655.00
2022-12-20T05:44:24.556Z,100662.00
2022-12-20T05:46:52.830Z,100647.00
2022-12-20T05:49:19.653Z,100670.00
2022-12-20T05:51:46.445Z,100650.00
2022-12-20T05:54:13.195Z,100652.00
2022-12-20T05:56:39.935Z,100662.00
2022-12-20T05:59:06.666Z,100646.00
2022-12-20T06:01:33.517Z,100649.00
2022-12-20T06:04:00.511Z,100640.00
2022-12-20T06:06:27.370Z,100635.00
2022-12-20T06:08:56.366Z,100644.00
2022-12-20T06:11:29.363Z,100645.00
2022-12-20T06:13:56.528Z,100646.00
2022-12-20T06:16:23.381Z,100647.00
2022-12-20T06:18:50.230Z,100639.00
2022-12-20T06:21:17.906Z,100643.00
2022-12-20T06:23:44.677Z,100637.00
2022-12-20T06:26:11.440Z,100643.00
2022-12-20T06:28:58.946Z,100638.00
2022-12-20T06:31:26.554Z,100644.00
2022-12-20T06:33:53.321Z,100635.00
2022-12-20T06:36:20.188Z,100645.00
2022-12-20T06:38:46.921Z,100638.00
2022-12-20T06:41:13.665Z,100635.00
2022-12-20T06:43:40.512Z,100636.00
2022-12-20T06:46:07.331Z,100640.00
2022-12-20T06:48:34.211Z,100635.00
2022-12-20T06:51:01.059Z,100645.00
2022-12-20T06:53:27.957Z,100648.00
2022-12-20T06:55:54.779Z,100642.00
2022-12-20T07:00:58.852Z,100647.00
2022-12-20T07:03:26.145Z,100657.00
2022-12-20T07:05:54.357Z,100655.00
2022-12-20T07:08:22.149Z,100662.00
2022-12-20T07:10:49.404Z,100665.00
2022-12-20T07:13:16.352Z,100655.00
2022-12-20T07:15:43.257Z,100652.00
2022-12-20T07:18:10.928Z,100655.00
2022-12-20T07:20:38.172Z,100655.00
2022-12-20T07:23:05.109Z,100647.00
2022-12-20T07:25:32.129Z,100655.00
2022-12-20T07:27:59.403Z,100663.00
2022-12-20T07:30:26.839Z,100660.00
2022-12-20T07:32:53.742Z,100653.00
2022-12-20T07:35:20.889Z,100651.00
2022-12-20T07:37:47.759Z,100642.00
2022-12-20T07:40:16.319Z,100660.00
2022-12-20T07:42:48.446Z,100652.00
2022-12-20T07:45:16.350Z,100645.00
2022-12-20T07:47:44.067Z,100633.00
2022-12-20T07:50:11.898Z,100625.00
2022-12-20T07:52:40.046Z,100636.00
2022-12-20T07:55:08.493Z,100634.00
2022-12-20T07:57:42.924Z,100630.00
2022-12-20T08:00:11.493Z,100637.00
2022-12-20T08:03:11.074Z,100632.00
2022-12-20T08:05:41.151Z,100633.00
2022-12-20T08:08:08.808Z,100627.00
2022-12-20T08:10:37.705Z,100639.00
2022-12-20T08:13:06.356Z,100634.00
2022-12-20T08:15:34.827Z,100638.00
2022-12-20T08:18:02.279Z,100628.00
2022-12-20T08:20:29.428Z,100629.00
2022-12-20T08:22:56.298Z,100629.00
2022-12-20T08:25:23.549Z,100644.00
2022-12-20T08:27:50.502Z,100633.00
2022-12-20T08:30:17.709Z,100639.00
2022-12-20T08:32:44.639Z,100637.00
2022-12-20T08:35:13.058Z,100619.00
2022-12-20T08:37:40.659Z,100631.00
2022-12-20T08:40:08.977Z,100624.00
2022-12-20T08:42:35.898Z,100628.00
2022-12-20T08:45:04.603Z,100612.00
2022-12-20T08:47:31.488Z,100611.00
2022-12-20T08:49:58.447Z,100619.00
2022-12-20T08:52:25.354Z,100606.00
2022-12-20T08:54:52.300Z,100607.00
2022-12-20T08:57:19.184Z,100591.00
2022-12-20T08:59:46.208Z,100592.00
2022-12-20T09:02:13.248Z,100599.00
2022-12-20T09:04:40.433Z,100601.00
2022-12-20T09:07:07.297Z,100590.00
2022-12-20T09:09:34.108Z,100576.00
2022-12-20T09:12:01.131Z,100564.00
2022-12-20T09:14:27.993Z,100575.00
2022-12-20T09:16:54.813Z,100581.00
2022-12-20T09:19:21.688Z,100574.00
2022-12-20T09:21:48.624Z,100583.00
2022-12-20T09:24:15.569Z,100601.00
2022-12-20T09:26:42.524Z,100604.00
2022-12-20T09:29:12.584Z,100600.00
2022-12-20T09:31:39.522Z,100604.00
2022-12-20T09:34:06.615Z,100591.00
2022-12-20T09:36:33.504Z,100577.00
2022-12-20T09:39:00.542Z,100579.00
2022-12-20T09:41:32.966Z,100575.00
2022-12-20T09:44:04.229Z,100582.00
2022-12-20T09:46:31.091Z,100583.00
2022-12-20T09:48:58.201Z,100594.00
2022-12-20T09:51:37.240Z,100579.00
2022-12-20T09:54:28.445Z,100599.00
2022-12-20T09:57:06.215Z,100581.00
2022-12-20T09:59:40.364Z,100600.00
2022-12-20T10:02:53.775Z,100591.00
2022-12-20T10:05:01.404Z,100581.00
2022-12-20T10:07:50.187Z,100572.00
2022-12-20T10:10:35.385Z,100574.00
2022-12-20T10:13:37.036Z,100578.00
2022-12-20T10:16:16.250Z,100578.00
2022-12-20T10:18:52.343Z,100567.00
2022-12-20T10:21:37.003Z,100552.00
2022-12-20T10:24:18.600Z,100570.00
2022-12-20T10:26:49.378Z,100561.00
2022-12-20T10:29:16.463Z,100561.00
2022-12-20T10:31:43.619Z,100557.00
2022-12-20T10:34:10.505Z,100555.00
2022-12-20T10:36:37.915Z,100552.00
2022-12-20T10:39:07.404Z,100551.00
2022-12-20T10:41:49.944Z,100553.00
2022-12-20T10:44:23.858Z,100540.00
2022-12-20T10:46:56.696Z,100541.00
2022-12-20T10:49:41.127Z,100531.00
2022-12-20T10:52:08.086Z,100540.00
2022-12-20T10:54:37.583Z,100519.00
2022-12-20T10:57:25.913Z,100507.00
2022-12-20T10:59:58.966Z,100514.00
2022-12-20T11:02:39.347Z,100518.00
2022-12-20T11:05:11.025Z,100504.00
2022-12-20T11:10:45.944Z,100499.00
2022-12-20T11:13:23.026Z,100518.00
2022-12-20T11:15:51.392Z,100521.00
2022-12-20T11:18:25.092Z,100513.00
2022-12-20T11:21:14.567Z,100513.00
2022-12-20T11:24:01.680Z,100497.00
2022-12-20T11:26:52.585Z,100498.00
2022-12-20T11:29:29.442Z,100489.00
2022-12-20T11:32:31.907Z,100487.00
2022-12-20T11:35:26.927Z,100479.00
2022-12-20T11:38:24.703Z,100475.00
2022-12-20T11:40:58.553Z,100481.00
2022-12-20T11:44:15.732Z,100471.00
2022-12-20T11:47:17.573Z,100467.00
2022-12-20T11:49:48.771Z,100454.00
2022-12-20T11:52:32.514Z,100449.00
2022-12-20T11:55:21.310Z,100452.00
2022-12-20T11:58:17.573Z,100442.00
2022-12-20T12:00:44.345Z,100436.00
2022-12-20T12:03:21.299Z,100445.00
2022-12-20T12:06:15.543Z,100455.00
2022-12-20T12:09:00.004Z,100438.00
2022-12-20T12:14:54.075Z,100443.00
2022-12-20T12:17:47.401Z,100439.00
2022-12-20T12:20:53.111Z,100447.00
2022-12-20T12:23:40.871Z,100439.00
2022-12-20T12:26:24.269Z,100430.00
2022-12-20T12:29:00.276Z,100431.00
2022-12-20T12:31:39.866Z,100420.00
2022-12-20T12:34:25.563Z,100421.00
2022-12-20T12:37:20.535Z,100433.00
2022-12-20T12:39:55.460Z,100423.00
2022-12-20T12:42:31.216Z,100426.00
2022-12-20T12:45:02.081Z,100415.00
2022-12-20T12:47:37.956Z,100425.00
2022-12-20T12:50:09.050Z,100428.00
2022-12-20T12:52:53.526Z,100426.00
2022-12-20T12:55:39.377Z,100417.00
2022-12-20T12:58:24.769Z,100427.00
2022-12-20T13:01:05.011Z,100431.00
2022-12-20T13:03:35.015Z,100431.00
2022-12-20T13:06:37.521Z,100422.00
2022-12-20T13:09:04.290Z,100428.00
2022-12-20T13:11:46.235Z,100417.00
2022-12-20T13:14:24.009Z,100413.00
2022-12-20T13:17:25.862Z,100413.00
2022-12-20T13:19:40.703Z,100422.00
2022-12-20T13:22:18.120Z,100421.00
2022-12-20T13:24:58.324Z,100422.00
2022-12-20T13:27:26.374Z,100424.00
2022-12-20T13:30:02.675Z,100420.00
2022-12-20T13:32:47.974Z,100420.00
2022-12-20T13:35:29.994Z,100427.00
2022-12-20T13:38:04.687Z,100428.00
